sensor_id;sensor_type;location;lat;lon;timestamp;P1;durP1;ratioP1;P2;durP2;ratioP2
75216;SDS011;63800;51.972;5.682;2023-08-01T00:00:51;6.85;;;4.18;;
75216;SDS011;63800;51.972;5.682;2023-08-01T00:03:16;6.70;;;4.20;;
75216;SDS011;63800;51.972;5.682;2023-08-01T00:05:42;5.70;;;3.90;;
75216;SDS011;63800;51.972;5.682;2023-08-01T00:08:11;7.35;;;3.70;;
75216;SDS011;63800;51.972;5.682;2023-08-01T00:10:39;5.47;;;3.65;;
75216;SDS011;63800;51.972;5.682;2023-08-01T00:13:06;5.15;;;3.47;;
75216;SDS011;63800;51.972;5.682;2023-08-01T00:15:32;5.25;;;3.67;;
75216;SDS011;63800;51.972;5.682;2023-08-01T00:17:58;4.60;;;3.25;;
75216;SDS011;63800;51.972;5.682;2023-08-01T00:20:23;6.70;;;3.90;;
75216;SDS011;63800;51.972;5.682;2023-08-01T00:22:49;5.00;;;3.92;;
75216;SDS011;63800;51.972;5.682;2023-08-01T00:25:14;5.75;;;4.05;;
75216;SDS011;63800;51.972;5.682;2023-08-01T00:27:40;6.20;;;4.10;;
75216;SDS011;63800;51.972;5.682;2023-08-01T00:30:06;5.72;;;3.97;;
75216;SDS011;63800;51.972;5.682;2023-08-01T00:32:33;7.65;;;4.10;;
75216;SDS011;63800;51.972;5.682;2023-08-01T00:34:59;4.85;;;3.97;;
75216;SDS011;63800;51.972;5.682;2023-08-01T00:37:24;5.50;;;3.75;;
75216;SDS011;63800;51.972;5.682;2023-08-01T00:39:50;5.53;;;4.10;;
75216;SDS011;63800;51.972;5.682;2023-08-01T00:42:15;6.80;;;4.47;;
75216;SDS011;63800;51.972;5.682;2023-08-01T00:44:41;6.72;;;4.70;;
75216;SDS011;63800;51.972;5.682;2023-08-01T00:47:06;7.55;;;4.90;;
75216;SDS011;63800;51.972;5.682;2023-08-01T00:49:32;6.40;;;4.38;;
75216;SDS011;63800;51.972;5.682;2023-08-01T00:51:58;6.97;;;4.88;;
75216;SDS011;63800;51.972;5.682;2023-08-01T00:54:23;9.10;;;5.15;;
75216;SDS011;63800;51.972;5.682;2023-08-01T00:56:50;6.20;;;5.10;;
75216;SDS011;63800;51.972;5.682;2023-08-01T00:59:15;8.63;;;6.25;;
75216;SDS011;63800;51.972;5.682;2023-08-01T01:01:41;7.20;;;5.20;;
75216;SDS011;63800;51.972;5.682;2023-08-01T01:04:06;8.23;;;5.50;;
75216;SDS011;63800;51.972;5.682;2023-08-01T01:06:34;8.02;;;5.70;;
75216;SDS011;63800;51.972;5.682;2023-08-01T01:09:16;8.32;;;6.30;;
75216;SDS011;63800;51.972;5.682;2023-08-01T01:11:42;8.38;;;5.80;;
75216;SDS011;63800;51.972;5.682;2023-08-01T01:14:08;11.15;;;6.57;;
75216;SDS011;63800;51.972;5.682;2023-08-01T01:16:34;9.20;;;6.82;;
75216;SDS011;63800;51.972;5.682;2023-08-01T01:18:59;8.73;;;6.70;;
75216;SDS011;63800;51.972;5.682;2023-08-01T01:21:25;9.43;;;6.93;;
75216;SDS011;63800;51.972;5.682;2023-08-01T01:23:50;8.52;;;6.53;;
75216;SDS011;63800;51.972;5.682;2023-08-01T01:26:17;9.23;;;6.70;;
75216;SDS011;63800;51.972;5.682;2023-08-01T01:28:47;9.90;;;7.03;;
75216;SDS011;63800;51.972;5.682;2023-08-01T01:31:14;8.73;;;6.40;;
75216;SDS011;63800;51.972;5.682;2023-08-01T01:33:41;9.82;;;5.80;;
75216;SDS011;63800;51.972;5.682;2023-08-01T01:36:06;7.75;;;5.90;;
75216;SDS011;63800;51.972;5.682;2023-08-01T01:38:32;11.48;;;6.10;;
75216;SDS011;63800;51.972;5.682;2023-08-01T01:40:57;9.40;;;5.22;;
75216;SDS011;63800;51.972;5.682;2023-08-01T01:43:23;8.07;;;5.50;;
75216;SDS011;63800;51.972;5.682;2023-08-01T01:45:48;9.10;;;5.28;;
75216;SDS011;63800;51.972;5.682;2023-08-01T01:48:14;8.85;;;4.85;;
75216;SDS011;63800;51.972;5.682;2023-08-01T01:50:39;7.18;;;5.15;;
75216;SDS011;63800;51.972;5.682;2023-08-01T01:53:04;12.02;;;5.15;;
75216;SDS011;63800;51.972;5.682;2023-08-01T01:55:30;10.70;;;4.90;;
75216;SDS011;63800;51.972;5.682;2023-08-01T01:57:55;8.85;;;5.13;;
75216;SDS011;63800;51.972;5.682;2023-08-01T02:00:21;12.43;;;5.20;;
75216;SDS011;63800;51.972;5.682;2023-08-01T02:02:46;10.00;;;4.93;;
75216;SDS011;63800;51.972;5.682;2023-08-01T02:05:12;8.77;;;4.65;;
75216;SDS011;63800;51.972;5.682;2023-08-01T02:07:37;14.50;;;5.55;;
75216;SDS011;63800;51.972;5.682;2023-08-01T02:10:03;10.45;;;4.90;;
75216;SDS011;63800;51.972;5.682;2023-08-01T02:12:28;12.65;;;5.07;;
75216;SDS011;63800;51.972;5.682;2023-08-01T02:14:57;8.60;;;4.57;;
75216;SDS011;63800;51.972;5.682;2023-08-01T02:17:23;7.80;;;4.53;;
75216;SDS011;63800;51.972;5.682;2023-08-01T02:19:49;9.27;;;4.38;;
75216;SDS011;63800;51.972;5.682;2023-08-01T02:22:14;10.63;;;4.20;;
75216;SDS011;63800;51.972;5.682;2023-08-01T02:24:40;8.52;;;4.57;;
75216;SDS011;63800;51.972;5.682;2023-08-01T02:27:05;10.07;;;4.57;;
75216;SDS011;63800;51.972;5.682;2023-08-01T02:29:30;8.88;;;4.47;;
75216;SDS011;63800;51.972;5.682;2023-08-01T02:31:56;7.38;;;4.38;;
75216;SDS011;63800;51.972;5.682;2023-08-01T02:34:21;9.32;;;4.45;;
75216;SDS011;63800;51.972;5.682;2023-08-01T02:36:47;9.05;;;4.57;;
75216;SDS011;63800;51.972;5.682;2023-08-01T02:39:12;10.63;;;4.72;;
75216;SDS011;63800;51.972;5.682;2023-08-01T02:41:38;9.60;;;4.53;;
75216;SDS011;63800;51.972;5.682;2023-08-01T02:44:03;10.35;;;4.65;;
75216;SDS011;63800;51.972;5.682;2023-08-01T02:46:29;11.02;;;4.53;;
75216;SDS011;63800;51.972;5.682;2023-08-01T02:48:54;11.15;;;4.53;;
75216;SDS011;63800;51.972;5.682;2023-08-01T02:51:20;9.13;;;4.63;;
75216;SDS011;63800;51.972;5.682;2023-08-01T02:53:46;10.25;;;4.93;;
75216;SDS011;63800;51.972;5.682;2023-08-01T02:56:11;7.88;;;4.70;;
75216;SDS011;63800;51.972;5.682;2023-08-01T02:58:36;9.98;;;4.60;;
75216;SDS011;63800;51.972;5.682;2023-08-01T03:01:08;9.45;;;4.07;;
75216;SDS011;63800;51.972;5.682;2023-08-01T03:03:35;8.75;;;3.90;;
75216;SDS011;63800;51.972;5.682;2023-08-01T03:06:01;11.07;;;4.10;;
75216;SDS011;63800;51.972;5.682;2023-08-01T03:08:27;9.05;;;3.85;;
75216;SDS011;63800;51.972;5.682;2023-08-01T03:10:53;8.52;;;4.10;;
75216;SDS011;63800;51.972;5.682;2023-08-01T03:13:19;10.30;;;3.95;;
75216;SDS011;63800;51.972;5.682;2023-08-01T03:15:44;11.68;;;4.53;;
75216;SDS011;63800;51.972;5.682;2023-08-01T03:18:10;7.00;;;3.90;;
75216;SDS011;63800;51.972;5.682;2023-08-01T03:20:35;10.32;;;4.22;;
75216;SDS011;63800;51.972;5.682;2023-08-01T03:23:01;9.18;;;3.88;;
75216;SDS011;63800;51.972;5.682;2023-08-01T03:25:27;11.73;;;3.97;;
75216;SDS011;63800;51.972;5.682;2023-08-01T03:27:52;10.18;;;4.55;;
75216;SDS011;63800;51.972;5.682;2023-08-01T03:30:19;11.60;;;5.13;;
75216;SDS011;63800;51.972;5.682;2023-08-01T03:32:45;7.78;;;4.28;;
75216;SDS011;63800;51.972;5.682;2023-08-01T03:35:11;14.07;;;5.07;;
75216;SDS011;63800;51.972;5.682;2023-08-01T03:37:39;14.02;;;5.88;;
75216;SDS011;63800;51.972;5.682;2023-08-01T03:40:05;14.32;;;6.55;;
75216;SDS011;63800;51.972;5.682;2023-08-01T03:42:33;13.20;;;5.97;;
75216;SDS011;63800;51.972;5.682;2023-08-01T03:44:59;11.70;;;5.70;;
75216;SDS011;63800;51.972;5.682;2023-08-01T03:47:25;14.38;;;6.03;;
75216;SDS011;63800;51.972;5.682;2023-08-01T03:49:50;12.35;;;5.53;;
75216;SDS011;63800;51.972;5.682;2023-08-01T03:52:16;11.85;;;6.15;;
75216;SDS011;63800;51.972;5.682;2023-08-01T03:54:41;14.50;;;5.63;;
75216;SDS011;63800;51.972;5.682;2023-08-01T03:57:07;11.18;;;5.40;;
75216;SDS011;63800;51.972;5.682;2023-08-01T03:59:32;9.40;;;4.88;;
75216;SDS011;63800;51.972;5.682;2023-08-01T04:01:58;13.82;;;5.85;;
75216;SDS011;63800;51.972;5.682;2023-08-01T04:04:23;10.02;;;5.03;;
75216;SDS011;63800;51.972;5.682;2023-08-01T04:06:48;13.10;;;5.15;;
75216;SDS011;63800;51.972;5.682;2023-08-01T04:09:14;10.57;;;5.70;;
75216;SDS011;63800;51.972;5.682;2023-08-01T04:11:39;10.55;;;4.70;;
75216;SDS011;63800;51.972;5.682;2023-08-01T04:14:05;11.52;;;5.80;;
75216;SDS011;63800;51.972;5.682;2023-08-01T04:16:30;12.10;;;5.05;;
75216;SDS011;63800;51.972;5.682;2023-08-01T04:18:56;15.02;;;5.20;;
75216;SDS011;63800;51.972;5.682;2023-08-01T04:21:21;8.82;;;4.93;;
75216;SDS011;63800;51.972;5.682;2023-08-01T04:23:46;11.68;;;5.03;;
75216;SDS011;63800;51.972;5.682;2023-08-01T04:26:12;11.57;;;5.38;;
75216;SDS011;63800;51.972;5.682;2023-08-01T04:28:37;12.65;;;5.32;;
75216;SDS011;63800;51.972;5.682;2023-08-01T04:31:03;12.05;;;5.80;;
75216;SDS011;63800;51.972;5.682;2023-08-01T04:33:28;14.02;;;4.93;;
75216;SDS011;63800;51.972;5.682;2023-08-01T04:35:54;10.07;;;5.43;;
75216;SDS011;63800;51.972;5.682;2023-08-01T04:38:19;10.10;;;5.40;;
75216;SDS011;63800;51.972;5.682;2023-08-01T04:40:45;9.75;;;5.35;;
75216;SDS011;63800;51.972;5.682;2023-08-01T04:43:11;12.27;;;5.32;;
75216;SDS011;63800;51.972;5.682;2023-08-01T04:45:37;10.10;;;5.63;;
75216;SDS011;63800;51.972;5.682;2023-08-01T04:48:03;12.38;;;5.05;;
75216;SDS011;63800;51.972;5.682;2023-08-01T04:50:28;9.10;;;5.15;;
75216;SDS011;63800;51.972;5.682;2023-08-01T04:52:54;12.65;;;5.32;;
75216;SDS011;63800;51.972;5.682;2023-08-01T04:55:19;10.32;;;5.65;;
75216;SDS011;63800;51.972;5.682;2023-08-01T04:57:45;12.55;;;5.40;;
75216;SDS011;63800;51.972;5.682;2023-08-01T05:00:10;9.98;;;5.22;;
75216;SDS011;63800;51.972;5.682;2023-08-01T05:02:36;10.55;;;5.50;;
75216;SDS011;63800;51.972;5.682;2023-08-01T05:05:02;10.10;;;4.55;;
75216;SDS011;63800;51.972;5.682;2023-08-01T05:07:29;12.38;;;5.57;;
75216;SDS011;63800;51.972;5.682;2023-08-01T05:09:55;11.95;;;5.13;;
75216;SDS011;63800;51.972;5.682;2023-08-01T05:12:20;13.73;;;5.90;;
75216;SDS011;63800;51.972;5.682;2023-08-01T05:14:46;11.43;;;4.85;;
75216;SDS011;63800;51.972;5.682;2023-08-01T05:17:11;12.63;;;5.65;;
75216;SDS011;63800;51.972;5.682;2023-08-01T05:19:36;10.98;;;5.60;;
75216;SDS011;63800;51.972;5.682;2023-08-01T05:22:02;10.43;;;5.05;;
75216;SDS011;63800;51.972;5.682;2023-08-01T05:24:27;11.25;;;5.47;;
75216;SDS011;63800;51.972;5.682;2023-08-01T05:26:53;11.95;;;6.13;;
75216;SDS011;63800;51.972;5.682;2023-08-01T05:29:18;14.07;;;5.45;;
75216;SDS011;63800;51.972;5.682;2023-08-01T05:31:44;11.70;;;5.20;;
75216;SDS011;63800;51.972;5.682;2023-08-01T05:34:09;11.75;;;5.88;;
75216;SDS011;63800;51.972;5.682;2023-08-01T05:36:35;9.77;;;5.75;;
75216;SDS011;63800;51.972;5.682;2023-08-01T05:39:02;13.75;;;6.25;;
75216;SDS011;63800;51.972;5.682;2023-08-01T05:41:27;10.20;;;6.05;;
75216;SDS011;63800;51.972;5.682;2023-08-01T05:43:53;11.30;;;6.00;;
75216;SDS011;63800;51.972;5.682;2023-08-01T05:46:18;10.82;;;5.57;;
75216;SDS011;63800;51.972;5.682;2023-08-01T05:48:44;11.35;;;5.88;;
75216;SDS011;63800;51.972;5.682;2023-08-01T05:51:09;13.48;;;5.85;;
75216;SDS011;63800;51.972;5.682;2023-08-01T05:53:35;13.85;;;6.18;;
75216;SDS011;63800;51.972;5.682;2023-08-01T05:56:00;9.93;;;6.00;;
75216;SDS011;63800;51.972;5.682;2023-08-01T05:58:25;12.88;;;6.03;;
75216;SDS011;63800;51.972;5.682;2023-08-01T06:00:51;10.93;;;5.25;;
75216;SDS011;63800;51.972;5.682;2023-08-01T06:03:16;9.57;;;5.25;;
75216;SDS011;63800;51.972;5.682;2023-08-01T06:05:42;11.10;;;5.45;;
75216;SDS011;63800;51.972;5.682;2023-08-01T06:08:08;12.85;;;5.90;;
75216;SDS011;63800;51.972;5.682;2023-08-01T06:10:34;15.38;;;5.97;;
75216;SDS011;63800;51.972;5.682;2023-08-01T06:13:00;10.93;;;5.85;;
75216;SDS011;63800;51.972;5.682;2023-08-01T06:15:26;14.02;;;5.82;;
75216;SDS011;63800;51.972;5.682;2023-08-01T06:17:52;10.30;;;6.25;;
75216;SDS011;63800;51.972;5.682;2023-08-01T06:20:18;13.60;;;5.90;;
75216;SDS011;63800;51.972;5.682;2023-08-01T06:22:44;14.77;;;5.93;;
75216;SDS011;63800;51.972;5.682;2023-08-01T06:25:09;13.65;;;5.68;;
75216;SDS011;63800;51.972;5.682;2023-08-01T06:27:35;13.38;;;5.30;;
75216;SDS011;63800;51.972;5.682;2023-08-01T06:30:02;11.45;;;5.40;;
75216;SDS011;63800;51.972;5.682;2023-08-01T06:32:27;11.93;;;5.20;;
75216;SDS011;63800;51.972;5.682;2023-08-01T06:34:53;15.00;;;5.30;;
75216;SDS011;63800;51.972;5.682;2023-08-01T06:37:18;13.13;;;5.28;;
75216;SDS011;63800;51.972;5.682;2023-08-01T06:39:44;11.20;;;5.18;;
75216;SDS011;63800;51.972;5.682;2023-08-01T06:42:09;11.15;;;4.53;;
75216;SDS011;63800;51.972;5.682;2023-08-01T06:44:35;12.30;;;5.07;;
75216;SDS011;63800;51.972;5.682;2023-08-01T06:47:00;12.88;;;5.13;;
75216;SDS011;63800;51.972;5.682;2023-08-01T06:49:25;9.13;;;4.43;;
75216;SDS011;63800;51.972;5.682;2023-08-01T06:51:51;7.82;;;4.82;;
75216;SDS011;63800;51.972;5.682;2023-08-01T06:54:16;11.70;;;4.55;;
75216;SDS011;63800;51.972;5.682;2023-08-01T06:56:42;9.52;;;4.47;;
75216;SDS011;63800;51.972;5.682;2023-08-01T06:59:12;13.35;;;4.75;;
75216;SDS011;63800;51.972;5.682;2023-08-01T07:01:41;7.72;;;4.60;;
75216;SDS011;63800;51.972;5.682;2023-08-01T07:04:09;12.38;;;5.38;;
75216;SDS011;63800;51.972;5.682;2023-08-01T07:06:38;13.32;;;6.03;;
75216;SDS011;63800;51.972;5.682;2023-08-01T07:09:03;11.18;;;5.40;;
75216;SDS011;63800;51.972;5.682;2023-08-01T07:11:29;8.40;;;4.40;;
75216;SDS011;63800;51.972;5.682;2023-08-01T07:13:54;9.65;;;4.47;;
75216;SDS011;63800;51.972;5.682;2023-08-01T07:16:20;13.40;;;5.35;;
75216;SDS011;63800;51.972;5.682;2023-08-01T07:18:45;10.75;;;4.40;;
75216;SDS011;63800;51.972;5.682;2023-08-01T07:21:12;10.57;;;4.85;;
75216;SDS011;63800;51.972;5.682;2023-08-01T07:23:38;8.43;;;4.07;;
75216;SDS011;63800;51.972;5.682;2023-08-01T07:26:04;9.95;;;3.80;;
75216;SDS011;63800;51.972;5.682;2023-08-01T07:28:29;9.07;;;4.10;;
75216;SDS011;63800;51.972;5.682;2023-08-01T07:30:58;10.98;;;4.05;;
75216;SDS011;63800;51.972;5.682;2023-08-01T07:33:25;6.40;;;3.30;;
75216;SDS011;63800;51.972;5.682;2023-08-01T07:35:51;9.90;;;3.85;;
75216;SDS011;63800;51.972;5.682;2023-08-01T07:38:16;5.65;;;3.33;;
75216;SDS011;63800;51.972;5.682;2023-08-01T07:40:42;9.45;;;3.58;;
75216;SDS011;63800;51.972;5.682;2023-08-01T07:43:07;8.10;;;2.88;;
75216;SDS011;63800;51.972;5.682;2023-08-01T07:45:33;5.78;;;3.03;;
75216;SDS011;63800;51.972;5.682;2023-08-01T07:47:59;10.93;;;4.13;;
75216;SDS011;63800;51.972;5.682;2023-08-01T07:50:25;8.60;;;3.83;;
75216;SDS011;63800;51.972;5.682;2023-08-01T07:52:51;9.68;;;3.20;;
75216;SDS011;63800;51.972;5.682;2023-08-01T07:55:17;7.80;;;3.53;;
75216;SDS011;63800;51.972;5.682;2023-08-01T07:57:43;6.85;;;3.40;;
75216;SDS011;63800;51.972;5.682;2023-08-01T08:00:09;9.88;;;3.28;;
75216;SDS011;63800;51.972;5.682;2023-08-01T08:02:35;10.25;;;3.50;;
75216;SDS011;63800;51.972;5.682;2023-08-01T08:05:01;6.10;;;3.35;;
75216;SDS011;63800;51.972;5.682;2023-08-01T08:07:26;8.07;;;3.65;;
75216;SDS011;63800;51.972;5.682;2023-08-01T08:09:52;9.50;;;4.07;;
75216;SDS011;63800;51.972;5.682;2023-08-01T08:12:20;12.18;;;3.95;;
75216;SDS011;63800;51.972;5.682;2023-08-01T08:14:46;8.00;;;3.85;;
75216;SDS011;63800;51.972;5.682;2023-08-01T08:17:11;7.95;;;3.72;;
75216;SDS011;63800;51.972;5.682;2023-08-01T08:19:37;9.27;;;3.80;;
75216;SDS011;63800;51.972;5.682;2023-08-01T08:22:02;8.40;;;4.22;;
75216;SDS011;63800;51.972;5.682;2023-08-01T08:24:28;10.90;;;4.65;;
75216;SDS011;63800;51.972;5.682;2023-08-01T08:26:53;8.02;;;3.88;;
75216;SDS011;63800;51.972;5.682;2023-08-01T08:29:19;6.45;;;3.53;;
75216;SDS011;63800;51.972;5.682;2023-08-01T08:31:44;10.10;;;4.40;;
75216;SDS011;63800;51.972;5.682;2023-08-01T08:34:10;7.38;;;3.45;;
75216;SDS011;63800;51.972;5.682;2023-08-01T08:36:35;5.97;;;3.20;;
75216;SDS011;63800;51.972;5.682;2023-08-01T08:39:00;7.80;;;3.67;;
75216;SDS011;63800;51.972;5.682;2023-08-01T08:41:27;7.68;;;3.13;;
75216;SDS011;63800;51.972;5.682;2023-08-01T08:43:55;6.53;;;2.85;;
75216;SDS011;63800;51.972;5.682;2023-08-01T08:46:23;7.38;;;2.90;;
75216;SDS011;63800;51.972;5.682;2023-08-01T08:48:53;6.07;;;3.35;;
75216;SDS011;63800;51.972;5.682;2023-08-01T08:51:21;6.38;;;3.10;;
75216;SDS011;63800;51.972;5.682;2023-08-01T08:53:47;6.00;;;3.20;;
75216;SDS011;63800;51.972;5.682;2023-08-01T08:56:14;7.97;;;3.55;;
75216;SDS011;63800;51.972;5.682;2023-08-01T08:58:40;7.57;;;3.20;;
75216;SDS011;63800;51.972;5.682;2023-08-01T09:01:06;6.43;;;2.78;;
75216;SDS011;63800;51.972;5.682;2023-08-01T09:03:33;4.28;;;2.70;;
75216;SDS011;63800;51.972;5.682;2023-08-01T09:06:02;6.15;;;2.72;;
75216;SDS011;63800;51.972;5.682;2023-08-01T09:08:32;5.57;;;2.97;;
75216;SDS011;63800;51.972;5.682;2023-08-01T09:11:01;8.68;;;2.60;;
75216;SDS011;63800;51.972;5.682;2023-08-01T09:13:26;3.60;;;2.40;;
75216;SDS011;63800;51.972;5.682;2023-08-01T09:15:52;6.95;;;2.50;;
75216;SDS011;63800;51.972;5.682;2023-08-01T09:18:19;4.35;;;2.60;;
75216;SDS011;63800;51.972;5.682;2023-08-01T09:20:48;4.75;;;2.28;;
75216;SDS011;63800;51.972;5.682;2023-08-01T09:23:15;4.45;;;2.50;;
75216;SDS011;63800;51.972;5.682;2023-08-01T09:25:41;5.93;;;2.67;;
75216;SDS011;63800;51.972;5.682;2023-08-01T09:28:23;5.93;;;2.58;;
75216;SDS011;63800;51.972;5.682;2023-08-01T09:30:50;5.35;;;1.90;;
75216;SDS011;63800;51.972;5.682;2023-08-01T09:33:17;4.00;;;2.47;;
75216;SDS011;63800;51.972;5.682;2023-08-01T09:35:43;2.97;;;1.95;;
75216;SDS011;63800;51.972;5.682;2023-08-01T09:38:11;3.95;;;2.30;;
75216;SDS011;63800;51.972;5.682;2023-08-01T09:40:39;4.68;;;2.58;;
75216;SDS011;63800;51.972;5.682;2023-08-01T09:43:05;3.30;;;2.45;;
75216;SDS011;63800;51.972;5.682;2023-08-01T09:45:30;6.35;;;2.70;;
75216;SDS011;63800;51.972;5.682;2023-08-01T09:47:56;6.47;;;2.70;;
75216;SDS011;63800;51.972;5.682;2023-08-01T09:50:22;5.22;;;2.55;;
75216;SDS011;63800;51.972;5.682;2023-08-01T09:52:49;7.07;;;2.60;;
75216;SDS011;63800;51.972;5.682;2023-08-01T09:55:31;5.88;;;3.50;;
75216;SDS011;63800;51.972;5.682;2023-08-01T09:57:58;6.00;;;2.53;;
75216;SDS011;63800;51.972;5.682;2023-08-01T10:00:28;6.00;;;2.55;;
75216;SDS011;63800;51.972;5.682;2023-08-01T10:02:55;5.93;;;2.63;;
75216;SDS011;63800;51.972;5.682;2023-08-01T10:05:24;5.35;;;2.28;;
75216;SDS011;63800;51.972;5.682;2023-08-01T10:07:54;4.47;;;2.38;;
75216;SDS011;63800;51.972;5.682;2023-08-01T10:10:23;6.97;;;2.78;;
75216;SDS011;63800;51.972;5.682;2023-08-01T10:12:50;5.43;;;2.58;;
75216;SDS011;63800;51.972;5.682;2023-08-01T10:15:16;3.20;;;2.08;;
75216;SDS011;63800;51.972;5.682;2023-08-01T10:17:42;4.63;;;2.10;;
75216;SDS011;63800;51.972;5.682;2023-08-01T10:20:09;4.57;;;2.08;;
75216;SDS011;63800;51.972;5.682;2023-08-01T10:22:36;6.45;;;2.20;;
75216;SDS011;63800;51.972;5.682;2023-08-01T10:25:02;4.25;;;2.10;;
75216;SDS011;63800;51.972;5.682;2023-08-01T10:27:29;5.85;;;2.05;;
75216;SDS011;63800;51.972;5.682;2023-08-01T10:29:58;5.57;;;2.25;;
75216;SDS011;63800;51.972;5.682;2023-08-01T10:32:32;5.03;;;2.10;;
75216;SDS011;63800;51.972;5.682;2023-08-01T10:34:58;4.85;;;2.42;;
75216;SDS011;63800;51.972;5.682;2023-08-01T10:37:24;3.55;;;2.17;;
75216;SDS011;63800;51.972;5.682;2023-08-01T10:39:56;3.35;;;2.08;;
75216;SDS011;63800;51.972;5.682;2023-08-01T10:42:36;4.75;;;2.30;;
75216;SDS011;63800;51.972;5.682;2023-08-01T10:45:03;5.35;;;2.58;;
75216;SDS011;63800;51.972;5.682;2023-08-01T10:47:28;5.55;;;2.70;;
75216;SDS011;63800;51.972;5.682;2023-08-01T10:49:55;7.25;;;2.45;;
75216;SDS011;63800;51.972;5.682;2023-08-01T10:52:22;5.82;;;3.20;;
75216;SDS011;63800;51.972;5.682;2023-08-01T10:54:58;5.38;;;2.30;;
75216;SDS011;63800;51.972;5.682;2023-08-01T10:59:50;4.80;;;2.38;;
75216;SDS011;63800;51.972;5.682;2023-08-01T11:02:28;5.05;;;2.40;;
75216;SDS011;63800;51.972;5.682;2023-08-01T11:04:57;3.75;;;2.53;;
75216;SDS011;63800;51.972;5.682;2023-08-01T11:07:23;4.15;;;2.33;;
75216;SDS011;63800;51.972;5.682;2023-08-01T11:09:49;3.72;;;2.25;;
75216;SDS011;63800;51.972;5.682;2023-08-01T11:12:15;6.05;;;2.65;;
75216;SDS011;63800;51.972;5.682;2023-08-01T11:14:40;4.30;;;2.22;;
75216;SDS011;63800;51.972;5.682;2023-08-01T11:17:06;3.85;;;2.17;;
75216;SDS011;63800;51.972;5.682;2023-08-01T11:19:31;3.30;;;2.25;;
75216;SDS011;63800;51.972;5.682;2023-08-01T11:21:57;3.60;;;2.20;;
75216;SDS011;63800;51.972;5.682;2023-08-01T11:24:23;5.47;;;2.28;;
75216;SDS011;63800;51.972;5.682;2023-08-01T11:26:51;5.05;;;2.42;;
75216;SDS011;63800;51.972;5.682;2023-08-01T11:29:18;5.05;;;2.50;;
75216;SDS011;63800;51.972;5.682;2023-08-01T11:31:54;6.57;;;2.60;;
75216;SDS011;63800;51.972;5.682;2023-08-01T11:34:23;6.03;;;2.35;;
75216;SDS011;63800;51.972;5.682;2023-08-01T11:36:49;5.07;;;2.25;;
75216;SDS011;63800;51.972;5.682;2023-08-01T11:39:15;3.30;;;2.15;;
75216;SDS011;63800;51.972;5.682;2023-08-01T11:41:41;5.10;;;2.72;;
75216;SDS011;63800;51.972;5.682;2023-08-01T11:44:08;5.50;;;2.58;;
75216;SDS011;63800;51.972;5.682;2023-08-01T11:46:36;5.82;;;2.55;;
75216;SDS011;63800;51.972;5.682;2023-08-01T11:49:03;4.22;;;2.30;;
75216;SDS011;63800;51.972;5.682;2023-08-01T11:51:29;5.75;;;2.40;;
75216;SDS011;63800;51.972;5.682;2023-08-01T11:54:01;5.03;;;2.50;;
75216;SDS011;63800;51.972;5.682;2023-08-01T11:56:28;5.05;;;2.20;;
75216;SDS011;63800;51.972;5.682;2023-08-01T11:58:54;4.22;;;2.30;;
75216;SDS011;63800;51.972;5.682;2023-08-01T12:01:19;4.63;;;2.13;;
75216;SDS011;63800;51.972;5.682;2023-08-01T12:03:52;5.65;;;2.03;;
75216;SDS011;63800;51.972;5.682;2023-08-01T12:06:19;3.67;;;2.40;;
75216;SDS011;63800;51.972;5.682;2023-08-01T12:08:47;4.15;;;2.13;;
75216;SDS011;63800;51.972;5.682;2023-08-01T12:11:20;4.63;;;2.17;;
75216;SDS011;63800;51.972;5.682;2023-08-01T12:13:46;5.90;;;2.47;;
75216;SDS011;63800;51.972;5.682;2023-08-01T12:16:13;5.38;;;2.20;;
75216;SDS011;63800;51.972;5.682;2023-08-01T12:18:42;4.07;;;2.22;;
75216;SDS011;63800;51.972;5.682;2023-08-01T12:21:09;3.88;;;2.22;;
75216;SDS011;63800;51.972;5.682;2023-08-01T12:23:35;3.78;;;2.70;;
75216;SDS011;63800;51.972;5.682;2023-08-01T12:26:01;3.83;;;2.40;;
75216;SDS011;63800;51.972;5.682;2023-08-01T12:28:26;4.85;;;2.83;;
75216;SDS011;63800;51.972;5.682;2023-08-01T12:30:52;4.43;;;2.75;;
75216;SDS011;63800;51.972;5.682;2023-08-01T12:33:17;3.70;;;2.85;;
75216;SDS011;63800;51.972;5.682;2023-08-01T12:35:42;4.75;;;2.08;;
75216;SDS011;63800;51.972;5.682;2023-08-01T12:38:08;5.95;;;2.25;;
75216;SDS011;63800;51.972;5.682;2023-08-01T12:40:34;6.95;;;2.63;;
75216;SDS011;63800;51.972;5.682;2023-08-01T12:43:00;9.13;;;2.75;;
75216;SDS011;63800;51.972;5.682;2023-08-01T12:45:25;6.60;;;2.70;;
75216;SDS011;63800;51.972;5.682;2023-08-01T12:47:51;4.63;;;3.00;;
75216;SDS011;63800;51.972;5.682;2023-08-01T12:50:16;7.72;;;2.80;;
75216;SDS011;63800;51.972;5.682;2023-08-01T12:52:42;6.20;;;2.90;;
75216;SDS011;63800;51.972;5.682;2023-08-01T12:55:07;9.20;;;2.92;;
75216;SDS011;63800;51.972;5.682;2023-08-01T12:57:33;8.00;;;2.92;;
75216;SDS011;63800;51.972;5.682;2023-08-01T12:59:59;5.05;;;2.65;;
75216;SDS011;63800;51.972;5.682;2023-08-01T13:02:25;5.03;;;2.67;;
75216;SDS011;63800;51.972;5.682;2023-08-01T13:04:51;6.00;;;2.72;;
75216;SDS011;63800;51.972;5.682;2023-08-01T13:07:17;8.15;;;2.90;;
75216;SDS011;63800;51.972;5.682;2023-08-01T13:09:42;6.68;;;2.60;;
75216;SDS011;63800;51.972;5.682;2023-08-01T13:12:08;5.03;;;2.38;;
75216;SDS011;63800;51.972;5.682;2023-08-01T13:14:33;3.97;;;2.22;;
75216;SDS011;63800;51.972;5.682;2023-08-01T13:16:59;5.90;;;2.53;;
75216;SDS011;63800;51.972;5.682;2023-08-01T13:19:24;6.20;;;2.40;;
75216;SDS011;63800;51.972;5.682;2023-08-01T13:21:50;5.82;;;2.45;;
75216;SDS011;63800;51.972;5.682;2023-08-01T13:24:16;4.85;;;2.13;;
75216;SDS011;63800;51.972;5.682;2023-08-01T13:26:41;3.83;;;2.58;;
75216;SDS011;63800;51.972;5.682;2023-08-01T13:29:07;6.25;;;2.97;;
75216;SDS011;63800;51.972;5.682;2023-08-01T13:31:32;6.57;;;2.45;;
75216;SDS011;63800;51.972;5.682;2023-08-01T13:33:58;4.88;;;2.22;;
75216;SDS011;63800;51.972;5.682;2023-08-01T13:36:23;4.82;;;2.50;;
75216;SDS011;63800;51.972;5.682;2023-08-01T13:38:49;5.05;;;2.03;;
75216;SDS011;63800;51.972;5.682;2023-08-01T13:41:15;7.43;;;2.58;;
75216;SDS011;63800;51.972;5.682;2023-08-01T13:43:41;3.90;;;2.38;;
75216;SDS011;63800;51.972;5.682;2023-08-01T13:46:14;3.53;;;2.10;;
75216;SDS011;63800;51.972;5.682;2023-08-01T13:48:44;4.57;;;2.15;;
75216;SDS011;63800;51.972;5.682;2023-08-01T13:51:10;6.10;;;2.08;;
75216;SDS011;63800;51.972;5.682;2023-08-01T13:53:37;4.28;;;2.08;;
75216;SDS011;63800;51.972;5.682;2023-08-01T13:56:06;3.08;;;1.85;;
75216;SDS011;63800;51.972;5.682;2023-08-01T13:58:32;3.58;;;1.90;;
75216;SDS011;63800;51.972;5.682;2023-08-01T14:01:01;4.00;;;1.90;;
75216;SDS011;63800;51.972;5.682;2023-08-01T14:03:28;4.88;;;1.92;;
75216;SDS011;63800;51.972;5.682;2023-08-01T14:05:54;5.55;;;2.53;;
75216;SDS011;63800;51.972;5.682;2023-08-01T14:08:21;4.82;;;2.08;;
75216;SDS011;63800;51.972;5.682;2023-08-01T14:10:46;5.00;;;2.22;;
75216;SDS011;63800;51.972;5.682;2023-08-01T14:13:11;4.47;;;2.28;;
75216;SDS011;63800;51.972;5.682;2023-08-01T14:15:37;4.32;;;2.10;;
75216;SDS011;63800;51.972;5.682;2023-08-01T14:18:02;5.90;;;1.73;;
75216;SDS011;63800;51.972;5.682;2023-08-01T14:20:28;3.78;;;2.10;;
75216;SDS011;63800;51.972;5.682;2023-08-01T14:22:53;5.28;;;2.33;;
75216;SDS011;63800;51.972;5.682;2023-08-01T14:25:19;7.60;;;2.25;;
75216;SDS011;63800;51.972;5.682;2023-08-01T14:27:44;3.72;;;2.10;;
75216;SDS011;63800;51.972;5.682;2023-08-01T14:30:10;3.67;;;1.90;;
75216;SDS011;63800;51.972;5.682;2023-08-01T14:32:36;3.70;;;2.00;;
75216;SDS011;63800;51.972;5.682;2023-08-01T14:35:02;4.82;;;2.08;;
75216;SDS011;63800;51.972;5.682;2023-08-01T14:37:27;3.60;;;1.75;;
75216;SDS011;63800;51.972;5.682;2023-08-01T14:39:54;3.80;;;1.80;;